Aniak, Alaska
Current Conditions -  °F | °C
As of 5:16 AM on Thursday 18 Dec 2014 (Local Time) from PANI Reporting Station
Clear Clear  
Wind Chill: 16°   Ceiling: Unl
Heat Index: 16°   Visibility: 10mi
Dew Point: 14°   Wind: 0mph
Humidity: 93%   Direction: NA
Pressure: 29.56"   Gusts: NA
Location:  61.58°N, 159.54°W
Report Text: PANI 181416Z AUTO 00000KT 10SM CLR M09/M10 A2956 RMK AO1
Loading
Personal Weather Stations






























Interactive Weather Map New forecast layout! Learn more

10-Day Weather Forecast

Advertisements
Track Severe Weather on mobile